createdAt,value
2022-11-16T00:02:21.221Z,44.70
2022-11-16T00:05:28.146Z,47.83
2022-11-16T00:08:33.582Z,48.73
2022-11-16T00:11:38.078Z,48.53
2022-11-16T00:14:40.606Z,51.55
2022-11-16T00:17:43.319Z,43.20
2022-11-16T00:20:45.850Z,51.20
2022-11-16T00:23:48.580Z,44.93
2022-11-16T00:26:53.012Z,51.90
2022-11-16T00:29:55.764Z,54.90
2022-11-16T00:33:05.486Z,47.50
2022-11-16T00:36:11.162Z,50.80
2022-11-16T00:39:15.069Z,48.90
2022-11-16T00:42:17.912Z,53.55
2022-11-16T00:45:20.437Z,48.45
2022-11-16T00:48:23.248Z,43.25
2022-11-16T00:51:25.941Z,54.55
2022-11-16T00:54:28.780Z,49.77
2022-11-16T00:57:31.341Z,50.63
2022-11-16T01:00:34.148Z,45.80
2022-11-16T01:03:37.955Z,47.17
2022-11-16T01:06:40.866Z,53.40
2022-11-16T01:09:43.346Z,47.23
2022-11-16T01:12:47.371Z,51.63
2022-11-16T01:15:49.954Z,54.25
2022-11-16T01:18:54.021Z,48.30
2022-11-16T01:21:56.598Z,46.72
2022-11-16T01:24:59.318Z,49.60
2022-11-16T01:28:01.802Z,55.92
2022-11-16T01:31:05.744Z,52.20
2022-11-16T01:34:09.182Z,50.70
2022-11-16T01:37:12.052Z,47.28
2022-11-16T01:40:15.355Z,52.93
2022-11-16T01:43:25.721Z,52.53
2022-11-16T01:46:30.146Z,56.75
2022-11-16T01:49:36.508Z,52.30
2022-11-16T01:53:08.519Z,59.20
2022-11-16T01:56:12.850Z,54.20
2022-11-16T01:59:16.139Z,53.28
2022-11-16T02:02:19.131Z,58.85
2022-11-16T02:05:33.681Z,49.58
2022-11-16T02:09:18.146Z,62.20
2022-11-16T02:12:43.588Z,47.83
2022-11-16T02:15:52.114Z,63.03
2022-11-16T02:19:10.718Z,62.33
2022-11-16T02:22:32.017Z,60.30
2022-11-16T02:25:50.396Z,59.88
2022-11-16T02:29:16.552Z,61.23
2022-11-16T02:32:31.897Z,57.03
2022-11-16T02:35:44.359Z,58.33
2022-11-16T02:39:01.758Z,67.90
2022-11-16T02:42:07.317Z,60.67
2022-11-16T02:45:13.025Z,62.17
2022-11-16T02:48:26.232Z,67.68
2022-11-16T02:51:29.623Z,61.33
2022-11-16T02:54:32.679Z,62.72
2022-11-16T02:57:43.526Z,57.00
2022-11-16T03:01:01.589Z,58.17
2022-11-16T03:04:20.251Z,63.08
2022-11-16T03:07:27.373Z,59.47
2022-11-16T03:10:50.568Z,58.60
2022-11-16T03:14:02.916Z,55.80
2022-11-16T03:17:32.910Z,57.80
2022-11-16T03:20:36.211Z,60.03
2022-11-16T03:23:39.436Z,56.88
2022-11-16T03:26:49.687Z,53.05
2022-11-16T03:29:59.545Z,56.47
2022-11-16T03:33:19.674Z,55.93
2022-11-16T03:36:28.320Z,59.80
2022-11-16T03:39:33.971Z,59.05
2022-11-16T03:42:37.946Z,59.85
2022-11-16T03:45:41.063Z,49.58
2022-11-16T03:48:44.481Z,54.63
2022-11-16T03:51:48.081Z,57.47
2022-11-16T03:54:51.127Z,60.90
2022-11-16T03:57:54.006Z,57.55
2022-11-16T04:00:57.144Z,54.15
2022-11-16T04:04:02.363Z,54.97
2022-11-16T04:07:23.588Z,61.35
2022-11-16T04:10:44.947Z,58.47
2022-11-16T04:14:09.054Z,55.60
2022-11-16T04:17:34.214Z,68.00
2022-11-16T04:20:55.623Z,60.67
2022-11-16T04:24:13.881Z,49.90
2022-11-16T04:27:36.140Z,55.72
2022-11-16T04:31:01.220Z,44.72
2022-11-16T04:34:22.753Z,50.88
2022-11-16T04:37:44.623Z,57.30
2022-11-16T04:40:47.961Z,62.78
2022-11-16T04:43:50.780Z,55.10
2022-11-16T04:47:06.929Z,53.40
2022-11-16T04:50:10.190Z,55.67
2022-11-16T04:53:13.946Z,57.30
2022-11-16T04:56:18.617Z,59.60
2022-11-16T04:59:22.503Z,58.42
2022-11-16T05:02:26.082Z,58.87
2022-11-16T05:05:29.016Z,55.67
2022-11-16T05:08:32.881Z,49.43
2022-11-16T05:11:35.852Z,60.50
2022-11-16T05:14:38.811Z,51.28
2022-11-16T05:17:41.254Z,53.05
2022-11-16T05:21:00.977Z,53.70
2022-11-16T05:24:22.590Z,64.07
2022-11-16T05:27:27.238Z,59.38
2022-11-16T05:30:30.360Z,56.08
2022-11-16T05:33:33.955Z,58.22
2022-11-16T05:36:36.792Z,54.00
2022-11-16T05:39:39.946Z,48.07
2022-11-16T05:42:42.575Z,53.90
2022-11-16T05:45:45.576Z,50.83
2022-11-16T05:48:49.015Z,56.40
2022-11-16T05:51:52.016Z,50.28
2022-11-16T05:54:54.791Z,54.00
2022-11-16T05:57:58.197Z,53.20
2022-11-16T06:01:01.139Z,49.92
2022-11-16T06:04:04.026Z,45.15
2022-11-16T06:07:07.151Z,50.10
2022-11-16T06:10:10.573Z,43.57
2022-11-16T06:13:13.855Z,53.58
2022-11-16T06:16:16.789Z,49.63
2022-11-16T06:19:19.242Z,48.42
2022-11-16T06:22:22.035Z,48.67
2022-11-16T06:25:24.734Z,52.13
2022-11-16T06:28:28.233Z,51.63
2022-11-16T06:31:30.896Z,48.22
2022-11-16T06:34:36.811Z,53.38
2022-11-16T06:37:39.514Z,49.25
2022-11-16T06:40:43.135Z,48.77
2022-11-16T06:43:45.697Z,52.90
2022-11-16T06:46:49.295Z,56.50
2022-11-16T06:49:51.984Z,44.50
2022-11-16T06:52:55.540Z,46.67
2022-11-16T06:56:03.173Z,48.00
2022-11-16T06:59:06.749Z,40.78
2022-11-16T07:02:11.315Z,50.85
2022-11-16T07:05:14.835Z,48.47
2022-11-16T07:08:17.826Z,39.42
2022-11-16T07:11:20.897Z,49.33
2022-11-16T07:14:23.870Z,44.28
2022-11-16T07:17:26.967Z,54.20
2022-11-16T07:20:29.541Z,50.70
2022-11-16T07:23:33.553Z,52.42
2022-11-16T07:26:36.667Z,47.17
2022-11-16T07:29:40.758Z,48.22
2022-11-16T07:32:44.042Z,44.65
2022-11-16T07:35:47.193Z,49.35
2022-11-16T07:38:49.731Z,43.80
2022-11-16T07:41:54.415Z,41.23
2022-11-16T07:44:57.409Z,42.75
2022-11-16T07:48:01.082Z,43.15
2022-11-16T07:51:08.258Z,74.57
2022-11-16T07:54:15.197Z,48.63
2022-11-16T07:57:17.700Z,44.37
2022-11-16T08:00:20.542Z,31.65
2022-11-16T08:03:24.934Z,38.22
2022-11-16T08:06:30.101Z,39.38
2022-11-16T08:09:34.803Z,44.88
2022-11-16T08:12:37.664Z,42.23
2022-11-16T08:15:41.361Z,41.80
2022-11-16T08:18:44.891Z,37.10
2022-11-16T08:21:48.070Z,38.55
2022-11-16T08:24:50.787Z,39.42
2022-11-16T08:27:53.697Z,38.23
2022-11-16T08:30:57.097Z,35.40
2022-11-16T08:34:00.614Z,36.25
2022-11-16T08:37:03.582Z,38.35
2022-11-16T08:40:08.098Z,32.38
2022-11-16T08:43:12.258Z,32.97
2022-11-16T08:46:15.635Z,32.70
2022-11-16T08:49:18.999Z,35.88
2022-11-16T08:52:22.852Z,36.65
2022-11-16T08:55:26.041Z,26.73
2022-11-16T08:58:29.177Z,30.97
2022-11-16T09:01:32.914Z,27.60
2022-11-16T09:04:37.162Z,33.85
2022-11-16T09:07:40.880Z,31.05
2022-11-16T09:10:44.093Z,34.25
2022-11-16T09:13:48.066Z,22.07
2022-11-16T09:16:52.325Z,32.50
2022-11-16T09:19:55.416Z,33.38
2022-11-16T09:22:58.191Z,28.12
2022-11-16T09:26:03.831Z,29.20
2022-11-16T09:29:11.751Z,31.60
2022-11-16T09:32:14.216Z,32.63
2022-11-16T09:35:17.478Z,31.27
2022-11-16T09:38:30.524Z,31.05
2022-11-16T09:41:50.713Z,33.47
2022-11-16T09:45:01.344Z,32.30
2022-11-16T09:48:06.117Z,33.08
2022-11-16T09:51:12.814Z,30.42
2022-11-16T09:54:20.362Z,27.42
2022-11-16T09:57:29.757Z,35.15
2022-11-16T10:00:33.565Z,34.57
2022-11-16T10:03:41.307Z,33.08
2022-11-16T10:07:03.783Z,27.85
2022-11-16T10:10:15.848Z,29.00
2022-11-16T10:13:37.162Z,28.23
2022-11-16T10:16:48.096Z,29.20
2022-11-16T10:19:56.495Z,16.55
2022-11-16T10:23:15.225Z,25.85
2022-11-16T10:26:46.285Z,20.62
2022-11-16T10:30:17.245Z,26.73
2022-11-16T10:33:21.139Z,27.73
2022-11-16T10:36:27.543Z,28.75
2022-11-16T10:39:31.482Z,68.62
2022-11-16T10:42:39.458Z,47.80
2022-11-16T10:45:47.727Z,29.80
2022-11-16T10:49:05.356Z,34.10
2022-11-16T10:52:07.891Z,32.47
2022-11-16T10:55:15.601Z,39.15
2022-11-16T10:58:18.120Z,41.22
2022-11-16T11:01:38.465Z,35.28
2022-11-16T11:04:41.013Z,48.13
2022-11-16T11:07:55.315Z,34.72
2022-11-16T11:11:25.007Z,26.80
2022-11-16T11:14:27.770Z,33.67
2022-11-16T11:17:32.734Z,36.50
2022-11-16T11:20:38.077Z,27.47
2022-11-16T11:23:50.905Z,114.18
2022-11-16T11:26:55.814Z,204.32
2022-11-16T11:29:59.227Z,174.73
2022-11-16T11:33:09.850Z,82.27
2022-11-16T11:36:21.253Z,44.30
2022-11-16T11:39:24.130Z,45.75
2022-11-16T11:42:26.762Z,28.02
2022-11-16T11:45:46.709Z,25.92
2022-11-16T11:48:58.536Z,26.00
2022-11-16T11:52:18.887Z,26.30
2022-11-16T11:55:21.575Z,29.77
2022-11-16T11:58:35.864Z,24.83
2022-11-16T12:02:06.456Z,25.98
2022-11-16T12:05:48.905Z,25.13
2022-11-16T12:09:05.116Z,27.23
2022-11-16T12:12:21.690Z,29.87
2022-11-16T12:15:59.349Z,31.08
2022-11-16T12:19:11.596Z,25.50
2022-11-16T12:22:28.969Z,30.07
2022-11-16T12:25:41.622Z,27.60
2022-11-16T12:28:56.237Z,28.70
2022-11-16T12:32:01.648Z,26.37
2022-11-16T12:35:33.724Z,25.05
2022-11-16T12:38:57.988Z,36.13
2022-11-16T12:42:09.242Z,25.03
2022-11-16T12:45:36.497Z,24.95
2022-11-16T12:48:49.592Z,29.48
2022-11-16T12:52:15.290Z,26.00
2022-11-16T12:55:32.333Z,22.17
2022-11-16T12:58:52.612Z,21.47
2022-11-16T13:02:08.217Z,20.52
2022-11-16T13:05:18.986Z,19.80
2022-11-16T13:08:21.471Z,19.67
2022-11-16T13:11:28.126Z,19.80
2022-11-16T13:14:37.614Z,23.13
2022-11-16T13:17:54.323Z,21.70
2022-11-16T13:21:13.499Z,19.58
2022-11-16T13:24:47.068Z,21.25
2022-11-16T13:28:10.837Z,25.10
2022-11-16T13:31:26.192Z,21.27
2022-11-16T13:34:33.281Z,22.15
2022-11-16T13:37:39.021Z,21.35
2022-11-16T13:40:41.738Z,20.98
2022-11-16T13:43:50.650Z,24.03
2022-11-16T13:46:56.186Z,21.30
2022-11-16T13:50:01.617Z,25.45
2022-11-16T13:54:10.737Z,25.25
2022-11-16T13:57:02.869Z,22.83
2022-11-16T14:00:11.813Z,19.07
2022-11-16T14:03:17.597Z,21.47
2022-11-16T14:06:19.964Z,19.15
2022-11-16T14:09:50.415Z,15.40
2022-11-16T14:12:54.464Z,16.67
2022-11-16T14:16:15.597Z,18.57
2022-11-16T14:19:44.471Z,15.83
2022-11-16T14:23:06.735Z,13.23
2022-11-16T14:26:24.629Z,15.38
2022-11-16T14:29:36.743Z,15.45
2022-11-16T14:32:47.832Z,14.57
2022-11-16T14:35:52.793Z,12.70
2022-11-16T14:38:55.597Z,15.70
2022-11-16T14:42:02.093Z,14.43
2022-11-16T14:45:16.483Z,13.60
2022-11-16T14:48:21.865Z,17.30
2022-11-16T14:51:31.622Z,16.03
2022-11-16T14:54:39.407Z,15.32
2022-11-16T14:57:42.133Z,14.75
2022-11-16T15:00:58.022Z,16.15
2022-11-16T15:04:06.514Z,16.17
2022-11-16T15:07:11.363Z,19.57
2022-11-16T15:10:17.368Z,19.55
2022-11-16T15:13:21.869Z,16.95
2022-11-16T15:16:24.334Z,16.92
2022-11-16T15:19:30.848Z,20.87
2022-11-16T15:22:40.622Z,18.07
2022-11-16T15:25:52.788Z,20.98
2022-11-16T15:28:55.408Z,22.58
2022-11-16T15:31:58.536Z,28.90
2022-11-16T15:35:05.194Z,35.40
2022-11-16T15:38:28.451Z,36.97
2022-11-16T15:41:31.071Z,29.40
2022-11-16T15:44:33.842Z,22.98
2022-11-16T15:47:37.453Z,23.33
2022-11-16T15:50:40.396Z,21.70
2022-11-16T15:53:45.184Z,19.83
2022-11-16T15:56:48.314Z,15.88
2022-11-16T15:59:56.270Z,17.83
2022-11-16T16:03:04.303Z,17.73
2022-11-16T16:06:08.717Z,18.47
2022-11-16T16:09:18.117Z,17.10
2022-11-16T16:12:22.724Z,17.20
2022-11-16T16:15:29.883Z,16.98
2022-11-16T16:18:41.718Z,22.15
2022-11-16T16:21:45.956Z,26.70
2022-11-16T16:24:48.747Z,34.17
2022-11-16T16:27:51.247Z,33.80
2022-11-16T16:30:54.035Z,49.45
2022-11-16T16:33:56.747Z,51.40
2022-11-16T16:36:59.671Z,55.03
2022-11-16T16:40:02.279Z,33.73
2022-11-16T16:43:05.116Z,33.25
2022-11-16T16:46:07.573Z,43.35
2022-11-16T16:49:10.831Z,33.22
2022-11-16T16:52:13.776Z,30.07
2022-11-16T16:55:16.645Z,34.20
2022-11-16T16:58:19.349Z,16.23
2022-11-16T17:01:22.245Z,23.73
2022-11-16T17:04:25.533Z,21.67
2022-11-16T17:07:29.579Z,22.40
2022-11-16T17:10:32.599Z,18.97
2022-11-16T17:13:35.771Z,17.80
2022-11-16T17:16:38.705Z,24.55
2022-11-16T17:19:41.798Z,37.80
2022-11-16T17:22:44.571Z,40.37
2022-11-16T17:25:47.597Z,48.60
2022-11-16T17:28:55.589Z,35.30
2022-11-16T17:31:58.999Z,29.02
2022-11-16T17:35:01.762Z,22.42
2022-11-16T17:38:04.857Z,31.27
2022-11-16T17:41:15.681Z,39.37
2022-11-16T17:44:21.893Z,37.33
2022-11-16T17:47:24.833Z,30.73
2022-11-16T17:50:27.918Z,25.40
2022-11-16T17:53:32.801Z,19.63
2022-11-16T17:56:36.137Z,21.87
2022-11-16T17:59:41.117Z,22.25
2022-11-16T18:02:44.003Z,20.58
2022-11-16T18:05:46.872Z,26.12
2022-11-16T18:08:49.842Z,21.43
2022-11-16T18:11:52.863Z,20.00
2022-11-16T18:15:26.333Z,23.25
2022-11-16T18:18:18.369Z,24.60
2022-11-16T18:21:21.186Z,26.20
2022-11-16T18:24:24.079Z,25.20
2022-11-16T18:27:26.796Z,23.63
2022-11-16T18:30:29.833Z,25.92
2022-11-16T18:33:33.157Z,24.42
2022-11-16T18:36:36.188Z,18.40
2022-11-16T18:39:38.864Z,28.57
2022-11-16T18:42:41.944Z,24.93
2022-11-16T18:45:44.462Z,23.52
2022-11-16T18:48:47.594Z,21.08
2022-11-16T18:51:50.573Z,18.40
2022-11-16T18:54:53.535Z,24.30
2022-11-16T18:57:56.279Z,25.53
2022-11-16T19:01:04.263Z,23.02
2022-11-16T19:04:08.841Z,25.23
2022-11-16T19:07:13.133Z,20.40
2022-11-16T19:10:16.341Z,21.57
2022-11-16T19:13:19.720Z,22.77
2022-11-16T19:16:24.167Z,24.75
2022-11-16T19:19:28.033Z,21.05
2022-11-16T19:22:33.575Z,18.40
2022-11-16T19:25:36.538Z,20.00
2022-11-16T19:28:41.659Z,19.03
2022-11-16T19:31:44.669Z,20.77
2022-11-16T19:34:47.434Z,30.45
2022-11-16T19:37:51.527Z,44.92
2022-11-16T19:40:54.332Z,28.33
2022-11-16T19:43:59.951Z,23.73
2022-11-16T19:47:02.731Z,23.85
2022-11-16T19:50:06.978Z,23.83
2022-11-16T19:53:09.934Z,21.15
2022-11-16T19:56:14.914Z,18.93
2022-11-16T19:59:18.069Z,21.87
2022-11-16T20:02:21.092Z,22.77
2022-11-16T20:05:25.491Z,18.48
2022-11-16T20:08:27.964Z,18.27
2022-11-16T20:11:33.830Z,18.23
2022-11-16T20:14:36.630Z,20.17
2022-11-16T20:17:39.669Z,14.30
2022-11-16T20:20:42.352Z,15.85
2022-11-16T20:23:45.663Z,16.83
2022-11-16T20:26:49.170Z,13.60
2022-11-16T20:29:52.455Z,14.13
2022-11-16T20:32:55.159Z,15.43
2022-11-16T20:36:08.697Z,18.87
2022-11-16T20:39:15.952Z,22.35
2022-11-16T20:42:21.869Z,11.27
2022-11-16T20:45:24.811Z,14.07
2022-11-16T20:48:27.658Z,17.40
2022-11-16T20:51:30.639Z,19.30
2022-11-16T20:54:33.771Z,18.15
2022-11-16T20:57:36.443Z,10.43
2022-11-16T21:00:39.411Z,19.17
2022-11-16T21:03:42.636Z,17.33
2022-11-16T21:06:45.614Z,17.65
2022-11-16T21:10:06.537Z,20.73
2022-11-16T21:13:32.631Z,23.07
2022-11-16T21:16:35.420Z,21.57
2022-11-16T21:19:38.394Z,21.70
2022-11-16T21:22:40.909Z,20.80
2022-11-16T21:25:43.678Z,18.17
2022-11-16T21:28:46.283Z,14.53
2022-11-16T21:31:49.081Z,16.23
2022-11-16T21:34:51.522Z,14.00
2022-11-16T21:37:54.332Z,14.48
2022-11-16T21:40:56.832Z,11.93
2022-11-16T21:43:59.584Z,14.83
2022-11-16T21:47:02.052Z,15.43
2022-11-16T21:53:27.598Z,9.85
2022-11-16T21:56:30.290Z,16.52
2022-11-16T21:59:32.721Z,23.20
2022-11-16T22:02:35.486Z,22.57
2022-11-16T22:05:56.886Z,24.80
2022-11-16T22:08:59.484Z,12.18
2022-11-16T22:12:05.262Z,9.20
2022-11-16T22:15:08.380Z,26.60
2022-11-16T22:18:11.310Z,15.07
2022-11-16T22:21:13.851Z,15.18
2022-11-16T22:24:16.584Z,15.05
2022-11-16T22:27:19.389Z,19.90
2022-11-16T22:30:22.202Z,23.20
2022-11-16T22:33:24.674Z,23.50
2022-11-16T22:36:27.438Z,18.30
2022-11-16T22:39:29.985Z,22.37
2022-11-16T22:42:32.815Z,16.00
2022-11-16T22:45:35.270Z,15.03
2022-11-16T22:48:39.961Z,14.97
2022-11-16T22:51:42.450Z,25.80
2022-11-16T22:54:45.181Z,20.05
2022-11-16T22:57:47.627Z,25.45
2022-11-16T23:00:51.808Z,20.03
2022-11-16T23:03:54.410Z,24.73
2022-11-16T23:06:57.175Z,28.62
2022-11-16T23:09:59.713Z,25.48
2022-11-16T23:13:20.768Z,22.80
2022-11-16T23:16:23.412Z,19.27
2022-11-16T23:19:45.227Z,25.37
2022-11-16T23:23:06.096Z,21.70
2022-11-16T23:26:34.120Z,21.05
2022-11-16T23:29:36.661Z,21.67
2022-11-16T23:32:39.497Z,21.83
2022-11-16T23:35:41.982Z,21.43
2022-11-16T23:38:44.749Z,27.83
2022-11-16T23:42:05.912Z,20.62
2022-11-16T23:45:08.987Z,21.98
2022-11-16T23:48:14.177Z,25.63
2022-11-16T23:51:18.741Z,23.07
2022-11-16T23:54:21.215Z,22.80
2022-11-16T23:57:23.941Z,26.08
